Terminal Aerodrome Forecast
Issued by NWS

Home | Current Version | Previous Version | Text Only | Print | Product List | Glossary On
Versions: 1 2 3 4 5 6 7 8 9 10 11 12
592
FTUS42 TJSJ 191141
TAFJPS
TAF
TJPS 191141Z 1912/2012 07005KT P6SM -SHRA SCT020 BKN050 BKN100
      TEMPO 1912/1913 VRB10G20KT 3SM TSRA BKN025CB BKN035
     FM191300 17007KT P6SM -SHRA VCTS SCT025CB BKN060
      TEMPO 1913/1915 VRB10G20KT 3SM +TSRA BKN025CB BKN035
     FM192300 VRB04KT P6SM VCSH SCT030 BKN120
      AMD NOT SKED=

USA.gov is the U.S. government's official web portal to all federal, state and local government web resources and services.